createdAt,value
2018-09-01T00:02:08.780Z,92.40
2018-09-01T00:04:39.554Z,92.40
2018-09-01T00:07:08.926Z,92.50
2018-09-01T00:09:38.311Z,92.50
2018-09-01T00:12:08.260Z,92.50
2018-09-01T00:14:37.120Z,92.50
2018-09-01T00:17:07.773Z,92.40
2018-09-01T00:19:37.637Z,92.60
2018-09-01T00:22:07.358Z,92.80
2018-09-01T00:24:36.397Z,92.70
2018-09-01T00:27:05.382Z,92.70
2018-09-01T00:29:36.416Z,92.80
2018-09-01T00:32:05.862Z,92.90
2018-09-01T00:34:35.039Z,93.30
2018-09-01T00:37:04.123Z,93.20
2018-09-01T00:39:42.334Z,93.00
2018-09-01T00:42:11.357Z,93.10
2018-09-01T00:44:40.835Z,93.10
2018-09-01T00:47:09.689Z,93.50
2018-09-01T00:49:40.399Z,93.30
2018-09-01T00:52:10.069Z,93.20
2018-09-01T00:54:38.986Z,93.20
2018-09-01T00:57:09.207Z,93.50
2018-09-01T00:59:38.329Z,93.30
2018-09-01T01:02:07.116Z,93.40
2018-09-01T01:04:35.973Z,93.30
2018-09-01T01:07:05.162Z,93.40
2018-09-01T01:09:34.705Z,93.60
2018-09-01T01:12:03.552Z,93.60
2018-09-01T01:14:32.601Z,93.70
2018-09-01T01:17:01.522Z,93.80
2018-09-01T01:19:30.770Z,93.90
2018-09-01T01:21:59.947Z,94.00
2018-09-01T01:24:30.833Z,93.80
2018-09-01T01:27:01.306Z,93.90
2018-09-01T01:29:32.051Z,94.00
2018-09-01T01:32:01.724Z,94.20
2018-09-01T01:34:30.680Z,94.20
2018-09-01T01:36:59.924Z,94.50
2018-09-01T01:39:29.665Z,94.30
2018-09-01T01:41:59.367Z,94.30
2018-09-01T01:44:28.314Z,94.30
2018-09-01T01:46:57.291Z,94.40
2018-09-01T01:49:27.046Z,94.40
2018-09-01T01:51:55.982Z,94.50
2018-09-01T01:54:24.951Z,94.50
2018-09-01T01:56:56.375Z,94.50
2018-09-01T01:59:29.405Z,94.60
2018-09-01T02:02:03.372Z,94.50
2018-09-01T02:04:32.402Z,94.80
2018-09-01T02:07:01.238Z,94.60
2018-09-01T02:09:30.027Z,94.60
2018-09-01T02:11:59.124Z,94.80
2018-09-01T02:14:28.617Z,94.90
2018-09-01T02:16:57.564Z,94.80
2018-09-01T02:19:26.584Z,94.80
2018-09-01T02:21:55.557Z,94.80
2018-09-01T02:24:24.368Z,94.80
2018-09-01T02:26:53.453Z,95.00
2018-09-01T02:29:22.243Z,95.10
2018-09-01T02:31:53.679Z,95.20
2018-09-01T02:34:26.548Z,95.40
2018-09-01T02:36:55.859Z,95.40
2018-09-01T02:39:24.781Z,95.50
2018-09-01T02:41:53.687Z,95.60
2018-09-01T02:44:22.643Z,95.70
2018-09-01T02:46:51.551Z,95.80
2018-09-01T02:49:20.344Z,95.90
2018-09-01T02:51:49.278Z,96.00
2018-09-01T02:54:18.282Z,95.90
2018-09-01T02:56:47.303Z,95.80
2018-09-01T02:59:16.159Z,95.60
2018-09-01T03:01:45.059Z,95.40
2018-09-01T03:04:13.841Z,95.40
2018-09-01T03:06:51.277Z,95.30
2018-09-01T03:09:20.568Z,95.30
2018-09-01T03:11:49.693Z,95.30
2018-09-01T03:14:18.669Z,95.20
2018-09-01T03:16:47.475Z,95.40
2018-09-01T03:19:16.456Z,95.40
2018-09-01T03:21:45.294Z,95.30
2018-09-01T03:24:14.098Z,95.30
2018-09-01T03:26:43.050Z,95.10
2018-09-01T03:29:12.655Z,95.40
2018-09-01T03:31:41.621Z,95.10
2018-09-01T03:34:11.086Z,95.10
2018-09-01T03:36:40.396Z,95.00
2018-09-01T03:39:09.777Z,94.90
2018-09-01T03:41:39.486Z,95.00
2018-09-01T03:44:08.517Z,95.20
2018-09-01T03:46:37.416Z,95.20
2018-09-01T03:49:07.877Z,95.50
2018-09-01T03:51:36.769Z,95.60
2018-09-01T03:54:05.735Z,95.40
2018-09-01T03:56:34.562Z,95.40
2018-09-01T03:59:03.545Z,95.80
2018-09-01T04:01:32.373Z,95.90
2018-09-01T04:04:01.314Z,96.00
2018-09-01T04:06:30.310Z,96.10
2018-09-01T04:08:59.245Z,95.80
2018-09-01T04:11:28.305Z,95.90
2018-09-01T04:13:57.461Z,96.10
2018-09-01T04:16:26.275Z,95.90
2018-09-01T04:18:54.995Z,95.90
2018-09-01T04:21:23.953Z,96.00
2018-09-01T04:23:52.807Z,96.30
2018-09-01T04:26:21.732Z,96.10
2018-09-01T04:28:50.572Z,96.20
2018-09-01T04:31:19.457Z,96.00
2018-09-01T04:33:48.302Z,96.00
2018-09-01T04:36:17.291Z,95.90
2018-09-01T04:38:46.173Z,96.20
2018-09-01T04:41:15.254Z,96.40
2018-09-01T04:43:44.211Z,96.40
2018-09-01T04:46:13.445Z,96.50
2018-09-01T04:48:42.312Z,96.70
2018-09-01T04:51:11.217Z,96.60
2018-09-01T04:53:40.097Z,96.50
2018-09-01T04:56:09.197Z,96.40
2018-09-01T04:58:38.287Z,96.20
2018-09-01T05:01:07.495Z,96.30
2018-09-01T05:03:36.219Z,96.30
2018-09-01T05:06:05.253Z,96.40
2018-09-01T05:08:34.113Z,96.40
2018-09-01T05:11:02.973Z,96.50
2018-09-01T05:13:31.878Z,96.50
2018-09-01T05:16:00.950Z,96.70
2018-09-01T05:18:30.148Z,96.70
2018-09-01T05:20:58.999Z,96.80
2018-09-01T05:23:27.886Z,96.80
2018-09-01T05:25:56.660Z,96.90
2018-09-01T05:28:25.827Z,96.90
2018-09-01T05:30:54.837Z,97.00
2018-09-01T05:33:24.327Z,97.00
2018-09-01T05:35:53.336Z,97.10
2018-09-01T05:38:22.525Z,97.20
2018-09-01T05:40:51.328Z,97.20
2018-09-01T05:43:20.124Z,97.20
2018-09-01T05:45:49.089Z,97.10
2018-09-01T05:48:18.011Z,97.20
2018-09-01T05:50:46.969Z,97.20
2018-09-01T05:53:15.781Z,97.30
2018-09-01T05:55:44.601Z,97.30
2018-09-01T05:58:13.410Z,97.20
2018-09-01T06:00:48.892Z,97.20
2018-09-01T06:03:18.366Z,97.30
2018-09-01T06:05:48.070Z,97.30
2018-09-01T06:08:17.267Z,97.40
2018-09-01T06:10:46.105Z,97.40
2018-09-01T06:13:15.160Z,97.40
2018-09-01T06:15:44.056Z,97.50
2018-09-01T06:18:12.984Z,97.50
2018-09-01T06:20:42.145Z,97.60
2018-09-01T06:23:11.078Z,97.80
2018-09-01T06:25:39.919Z,97.90
2018-09-01T06:28:27.554Z,98.00
2018-09-01T06:30:56.942Z,98.10
2018-09-01T06:33:25.873Z,98.10
2018-09-01T06:35:54.768Z,98.20
2018-09-01T06:38:23.699Z,98.30
2018-09-01T06:40:52.723Z,98.40
2018-09-01T06:43:21.664Z,98.40
2018-09-01T06:45:50.646Z,98.50
2018-09-01T06:48:19.617Z,98.50
2018-09-01T06:50:48.525Z,98.60
2018-09-01T06:53:17.437Z,98.80
2018-09-01T06:55:46.358Z,98.80
2018-09-01T06:58:15.209Z,98.90
2018-09-01T07:00:44.057Z,99.00
2018-09-01T07:03:12.894Z,99.10
2018-09-01T07:05:41.671Z,99.20
2018-09-01T07:08:10.495Z,99.60
2018-09-01T07:10:39.340Z,99.60
2018-09-01T07:13:08.150Z,99.60
2018-09-01T07:15:37.131Z,99.90
2018-09-01T07:18:06.014Z,99.60
2018-09-01T07:20:34.900Z,99.70
2018-09-01T07:23:03.789Z,99.50
2018-09-01T07:25:32.684Z,99.30
2018-09-01T07:28:01.465Z,99.40
2018-09-01T07:30:30.560Z,98.70
2018-09-01T07:32:59.338Z,98.70
2018-09-01T07:35:28.282Z,98.50
2018-09-01T07:37:57.174Z,98.50
2018-09-01T07:40:26.150Z,98.70
2018-09-01T07:42:54.975Z,98.60
2018-09-01T07:45:23.985Z,99.00
2018-09-01T07:47:52.802Z,99.30
2018-09-01T07:50:21.630Z,99.40
2018-09-01T07:52:50.661Z,99.30
2018-09-01T07:55:19.514Z,99.30
2018-09-01T07:57:48.405Z,99.30
2018-09-01T08:00:17.362Z,99.40
2018-09-01T08:02:46.219Z,99.40
2018-09-01T08:05:15.172Z,99.20
2018-09-01T08:07:44.240Z,98.80
2018-09-01T08:10:13.106Z,98.70
2018-09-01T08:12:42.226Z,98.70
2018-09-01T08:15:11.198Z,98.60
2018-09-01T08:17:40.116Z,98.40
2018-09-01T08:20:09.069Z,98.10
2018-09-01T08:22:38.326Z,97.30
2018-09-01T08:25:08.229Z,97.10
2018-09-01T08:27:37.991Z,97.40
2018-09-01T08:30:08.399Z,96.70
2018-09-01T08:32:37.194Z,96.60
2018-09-01T08:35:07.028Z,96.80
2018-09-01T08:37:35.909Z,96.90
2018-09-01T08:40:05.251Z,96.70
2018-09-01T08:42:34.293Z,96.60
2018-09-01T08:45:03.185Z,96.50
2018-09-01T08:47:32.262Z,96.10
2018-09-01T08:50:01.316Z,96.20
2018-09-01T08:52:30.384Z,95.60
2018-09-01T08:54:59.769Z,94.40
2018-09-01T08:57:28.668Z,93.60
2018-09-01T08:59:57.553Z,93.60
2018-09-01T09:02:27.510Z,93.50
2018-09-01T09:04:56.400Z,92.70
2018-09-01T09:07:25.398Z,91.70
2018-09-01T09:09:54.348Z,92.10
2018-09-01T09:12:24.769Z,92.00
2018-09-01T09:14:53.665Z,91.40
2018-09-01T09:17:22.701Z,91.30
2018-09-01T09:19:51.610Z,90.20
2018-09-01T09:22:20.623Z,90.30
2018-09-01T09:24:49.473Z,90.20
2018-09-01T09:27:18.408Z,89.60
2018-09-01T09:29:47.406Z,89.10
2018-09-01T09:32:16.364Z,89.10
2018-09-01T09:34:45.341Z,89.20
2018-09-01T09:37:15.183Z,88.40
2018-09-01T09:39:44.047Z,87.90
2018-09-01T09:42:12.932Z,88.80
2018-09-01T09:44:42.193Z,88.20
2018-09-01T09:47:11.579Z,86.20
2018-09-01T09:49:40.898Z,85.10
2018-09-01T09:52:10.104Z,84.10
2018-09-01T09:54:39.675Z,82.70
2018-09-01T09:57:08.925Z,83.80
2018-09-01T09:59:37.855Z,83.40
2018-09-01T10:02:07.750Z,82.50
2018-09-01T10:04:37.500Z,82.30
2018-09-01T10:07:06.914Z,83.00
2018-09-01T10:09:35.813Z,82.80
2018-09-01T10:12:04.865Z,83.10
2018-09-01T10:14:35.007Z,82.90
2018-09-01T10:17:05.130Z,81.20
2018-09-01T10:19:40.211Z,82.20
2018-09-01T10:22:09.919Z,81.00
2018-09-01T10:24:38.785Z,81.10
2018-09-01T10:27:09.369Z,79.70
2018-09-01T10:29:38.129Z,80.90
2018-09-01T10:32:07.488Z,79.30
2018-09-01T10:34:37.392Z,79.20
2018-09-01T10:37:06.398Z,78.90
2018-09-01T10:39:35.534Z,78.60
2018-09-01T10:42:04.468Z,78.10
2018-09-01T10:44:33.760Z,75.60
2018-09-01T10:47:07.661Z,76.10
2018-09-01T10:49:40.396Z,74.70
2018-09-01T10:52:09.502Z,74.40
2018-09-01T10:54:40.203Z,74.50
2018-09-01T10:57:09.978Z,74.90
2018-09-01T10:59:40.118Z,75.50
2018-09-01T11:02:09.846Z,75.90
2018-09-01T11:04:39.100Z,75.60
2018-09-01T11:07:09.500Z,72.40
2018-09-01T11:09:39.137Z,72.70
2018-09-01T11:12:08.836Z,72.60
2018-09-01T11:14:39.498Z,72.70
2018-09-01T11:17:09.164Z,72.00
2018-09-01T11:19:40.473Z,71.00
2018-09-01T11:22:09.928Z,70.70
2018-09-01T11:24:38.941Z,71.00
2018-09-01T11:27:07.981Z,70.50
2018-09-01T11:29:37.167Z,69.40
2018-09-01T11:32:06.613Z,68.20
2018-09-01T11:34:36.028Z,68.50
2018-09-01T11:37:06.133Z,68.50
2018-09-01T11:39:41.262Z,68.50
2018-09-01T11:42:11.817Z,68.50
2018-09-01T11:44:42.784Z,67.60
2018-09-01T11:47:12.642Z,67.40
2018-09-01T11:49:41.535Z,67.10
2018-09-01T11:52:10.514Z,66.90
2018-09-01T11:54:39.345Z,66.00
2018-09-01T11:57:08.276Z,66.80
2018-09-01T11:59:38.282Z,67.40
2018-09-01T12:02:08.431Z,66.70
2018-09-01T12:04:39.280Z,65.80
2018-09-01T12:07:08.647Z,67.00
2018-09-01T12:09:37.725Z,66.10
2018-09-01T12:12:09.348Z,65.20
2018-09-01T12:14:38.925Z,65.50
2018-09-01T12:17:08.422Z,65.00
2018-09-01T12:19:38.316Z,64.60
2018-09-01T12:22:09.042Z,63.40
2018-09-01T12:24:38.987Z,62.70
2018-09-01T12:27:08.926Z,63.00
2018-09-01T12:29:37.854Z,63.00
2018-09-01T12:32:06.874Z,62.50
2018-09-01T12:34:40.416Z,61.50
2018-09-01T12:37:09.461Z,60.40
2018-09-01T12:39:39.210Z,59.00
2018-09-01T12:42:09.173Z,58.50
2018-09-01T12:44:39.021Z,57.00
2018-09-01T12:47:08.901Z,56.00
2018-09-01T12:49:38.888Z,54.50
2018-09-01T12:52:09.055Z,52.80
2018-09-01T12:54:39.019Z,53.20
2018-09-01T12:57:10.257Z,51.00
2018-09-01T12:59:40.553Z,48.40
2018-09-01T13:02:09.622Z,49.00
2018-09-01T13:04:38.598Z,49.50
2018-09-01T13:07:07.583Z,49.50
2018-09-01T13:09:37.566Z,50.40
2018-09-01T13:12:08.557Z,51.10
2018-09-01T13:14:38.541Z,52.60
2018-09-01T13:17:10.536Z,53.20
2018-09-01T13:19:40.541Z,53.10
2018-09-01T13:22:11.304Z,53.60
2018-09-01T13:24:40.404Z,54.60
2018-09-01T13:27:09.325Z,55.80
2018-09-01T13:29:39.906Z,56.40
2018-09-01T13:32:11.217Z,57.20
2018-09-01T13:34:41.434Z,58.10
2018-09-01T13:37:10.301Z,57.90
2018-09-01T13:39:40.061Z,57.90
2018-09-01T13:42:09.718Z,57.60
2018-09-01T13:44:39.731Z,57.80
2018-09-01T13:47:08.653Z,57.60
2018-09-01T13:49:39.489Z,58.50
2018-09-01T13:52:10.078Z,57.80
2018-09-01T13:54:40.182Z,53.20
2018-09-01T13:57:14.595Z,43.80
2018-09-01T13:59:43.600Z,36.70
2018-09-01T14:02:13.408Z,34.90
2018-09-01T14:04:44.616Z,37.10
2018-09-01T14:07:13.797Z,41.20
2018-09-01T14:09:42.733Z,44.90
2018-09-01T14:12:11.677Z,47.60
2018-09-01T14:14:44.710Z,50.70
2018-09-01T14:17:13.669Z,52.40
2018-09-01T14:19:42.839Z,53.80
2018-09-01T14:22:11.738Z,55.10
2018-09-01T14:24:41.434Z,54.40
2018-09-01T14:27:20.412Z,55.80
2018-09-01T14:29:52.954Z,54.70
2018-09-01T14:32:22.277Z,55.10
2018-09-01T14:34:52.191Z,55.20
2018-09-01T14:37:21.410Z,55.30
2018-09-01T14:39:52.103Z,55.90
2018-09-01T14:42:26.416Z,55.40
2018-09-01T14:45:06.054Z,55.70
2018-09-01T14:47:35.948Z,51.00
2018-09-01T14:50:05.605Z,45.80
2018-09-01T14:52:35.425Z,46.40
2018-09-01T14:55:04.702Z,49.20
2018-09-01T14:57:35.131Z,50.60
2018-09-01T15:00:04.455Z,49.20
2018-09-01T15:02:38.988Z,48.60
2018-09-01T15:05:08.969Z,49.50
2018-09-01T15:07:38.530Z,50.00
2018-09-01T15:10:12.581Z,51.20
2018-09-01T15:12:42.613Z,53.00
2018-09-01T15:15:11.786Z,54.10
2018-09-01T15:17:41.673Z,55.10
2018-09-01T15:20:10.626Z,55.90
2018-09-01T15:22:50.462Z,57.00
2018-09-01T15:25:19.476Z,57.50
2018-09-01T15:27:48.394Z,58.10
2018-09-01T15:30:17.449Z,58.50
2018-09-01T15:32:49.907Z,58.50
2018-09-01T15:35:18.961Z,59.00
2018-09-01T15:37:47.985Z,58.80
2018-09-01T15:40:17.073Z,59.10
2018-09-01T15:42:48.947Z,59.10
2018-09-01T15:45:17.971Z,59.70
2018-09-01T15:47:47.077Z,60.50
2018-09-01T15:50:16.220Z,61.10
2018-09-01T15:52:45.205Z,61.80
2018-09-01T15:55:14.116Z,62.20
2018-09-01T15:57:43.113Z,62.60
2018-09-01T16:00:12.543Z,62.60
2018-09-01T16:05:23.720Z,62.70
2018-09-01T16:07:52.616Z,62.70
2018-09-01T16:10:21.649Z,63.10
2018-09-01T16:12:50.976Z,62.90
2018-09-01T16:15:21.112Z,62.90
2018-09-01T16:17:50.950Z,62.90
2018-09-01T16:20:20.316Z,62.40
2018-09-01T16:22:50.766Z,62.20
2018-09-01T16:25:20.785Z,62.60
2018-09-01T16:27:51.473Z,62.20
2018-09-01T16:30:21.129Z,62.30
2018-09-01T16:32:50.037Z,63.00
2018-09-01T16:35:19.874Z,62.70
2018-09-01T16:37:49.134Z,63.00
2018-09-01T16:40:18.294Z,63.00
2018-09-01T16:42:47.680Z,63.00
2018-09-01T16:45:16.582Z,63.20
2018-09-01T16:47:45.486Z,63.80
2018-09-01T16:50:14.382Z,64.30
2018-09-01T16:52:43.418Z,64.50
2018-09-01T16:55:12.404Z,64.60
2018-09-01T16:57:42.083Z,64.90
2018-09-01T17:00:11.024Z,65.20
2018-09-01T17:02:40.216Z,65.50
2018-09-01T17:05:09.120Z,66.20
2018-09-01T17:07:37.992Z,66.40
2018-09-01T17:10:07.901Z,67.70
2018-09-01T17:12:42.432Z,67.40
2018-09-01T17:15:11.475Z,67.50
2018-09-01T17:17:40.735Z,68.20
2018-09-01T17:20:09.678Z,68.80
2018-09-01T17:22:41.249Z,69.10
2018-09-01T17:25:10.201Z,69.50
2018-09-01T17:27:46.139Z,70.00
2018-09-01T17:30:15.058Z,70.50
2018-09-01T17:32:46.226Z,70.60
2018-09-01T17:35:15.301Z,70.70
2018-09-01T17:37:44.167Z,71.00
2018-09-01T17:40:12.989Z,71.40
2018-09-01T17:42:47.567Z,71.80
2018-09-01T17:45:16.621Z,72.80
2018-09-01T17:47:45.816Z,72.50
2018-09-01T17:50:15.218Z,72.80
2018-09-01T17:52:51.166Z,73.10
2018-09-01T17:55:30.170Z,73.40
2018-09-01T17:57:59.782Z,73.70
2018-09-01T18:00:28.803Z,74.10
2018-09-01T18:02:59.788Z,74.50
2018-09-01T18:05:28.683Z,75.10
2018-09-01T18:07:57.604Z,75.60
2018-09-01T18:10:26.909Z,76.70
2018-09-01T18:12:58.547Z,76.20
2018-09-01T18:15:29.545Z,76.80
2018-09-01T18:17:59.650Z,77.30
2018-09-01T18:20:28.555Z,77.60
2018-09-01T18:23:05.608Z,78.30
2018-09-01T18:25:37.738Z,78.50
2018-09-01T18:28:07.526Z,79.00
2018-09-01T18:30:40.672Z,79.60
2018-09-01T18:33:11.411Z,79.80
2018-09-01T18:35:40.378Z,80.30
2018-09-01T18:38:11.135Z,80.70
2018-09-01T18:40:40.049Z,81.30
2018-09-01T18:43:12.276Z,81.80
2018-09-01T18:45:41.220Z,82.10
2018-09-01T18:48:11.036Z,82.30
2018-09-01T18:50:40.909Z,82.90
2018-09-01T18:53:09.928Z,83.50
2018-09-01T18:55:40.186Z,83.70
2018-09-01T18:58:09.131Z,84.00
2018-09-01T19:00:41.961Z,84.60
2018-09-01T19:03:16.972Z,85.00
2018-09-01T19:05:46.523Z,85.30
2018-09-01T19:08:19.211Z,85.60
2018-09-01T19:10:51.117Z,85.90
2018-09-01T19:13:27.830Z,86.10
2018-09-01T19:15:56.719Z,86.50
2018-09-01T19:18:26.465Z,86.60
2018-09-01T19:20:57.366Z,87.10
2018-09-01T19:23:28.980Z,88.20
2018-09-01T19:25:59.760Z,87.70
2018-09-01T19:28:30.300Z,88.00
2018-09-01T19:31:00.885Z,88.30
2018-09-01T19:33:35.059Z,88.40
2018-09-01T19:36:05.065Z,88.90
2018-09-01T19:38:36.606Z,89.70
2018-09-01T19:41:17.895Z,89.60
2018-09-01T19:43:49.469Z,89.60
2018-09-01T19:46:20.881Z,89.90
2018-09-01T19:48:50.745Z,90.20
2018-09-01T19:51:26.516Z,90.30
2018-09-01T19:53:55.409Z,90.40
2018-09-01T19:56:24.551Z,90.60
2018-09-01T19:58:54.494Z,90.60
2018-09-01T20:01:23.491Z,90.60
2018-09-01T20:03:54.441Z,90.90
2018-09-01T20:06:23.436Z,90.90
2018-09-01T20:08:53.637Z,91.00
2018-09-01T20:11:23.345Z,91.00
2018-09-01T20:13:53.723Z,91.20
2018-09-01T20:16:23.072Z,91.20
2018-09-01T20:18:52.012Z,91.30
2018-09-01T20:21:26.725Z,91.30
2018-09-01T20:24:01.301Z,91.30
2018-09-01T20:26:31.461Z,91.20
2018-09-01T20:29:02.967Z,91.40
2018-09-01T20:31:35.144Z,91.50
2018-09-01T20:34:11.911Z,91.50
2018-09-01T20:36:41.834Z,91.60
2018-09-01T20:39:10.863Z,91.70
2018-09-01T20:41:48.575Z,91.70
2018-09-01T20:44:17.444Z,91.80
2018-09-01T20:46:47.053Z,91.90
2018-09-01T20:49:16.005Z,91.90
2018-09-01T20:51:46.096Z,92.00
2018-09-01T20:54:14.959Z,91.90
2018-09-01T20:56:43.875Z,92.00
2018-09-01T20:59:12.830Z,92.00
2018-09-01T21:01:41.807Z,92.10
2018-09-01T21:04:10.904Z,92.10
2018-09-01T21:06:40.144Z,92.10
2018-09-01T21:09:10.144Z,92.20
2018-09-01T21:11:39.598Z,92.30
2018-09-01T21:14:11.022Z,92.30
2018-09-01T21:16:45.836Z,92.40
2018-09-01T21:19:15.192Z,92.50
2018-09-01T21:21:44.061Z,92.80
2018-09-01T21:24:13.129Z,92.90
2018-09-01T21:26:42.549Z,92.80
2018-09-01T21:29:11.649Z,92.70
2018-09-01T21:31:41.421Z,92.80
2018-09-01T21:34:10.566Z,92.70
2018-09-01T21:36:40.233Z,92.70
2018-09-01T21:39:09.563Z,92.70
2018-09-01T21:41:38.626Z,92.70
2018-09-01T21:44:07.694Z,92.70
2018-09-01T21:46:36.595Z,92.60
2018-09-01T21:49:05.488Z,92.50
2018-09-01T21:51:34.415Z,92.60
2018-09-01T21:54:03.435Z,92.70
2018-09-01T21:56:32.468Z,93.10
2018-09-01T21:59:01.681Z,93.00
2018-09-01T22:01:35.671Z,93.00
2018-09-01T22:04:04.794Z,93.10
2018-09-01T22:06:33.813Z,93.30
2018-09-01T22:09:04.885Z,93.00
2018-09-01T22:11:33.944Z,92.90
2018-09-01T22:14:13.569Z,92.80
2018-09-01T22:16:43.431Z,92.90
2018-09-01T22:19:15.926Z,93.10
2018-09-01T22:21:44.887Z,93.00
2018-09-01T22:24:13.746Z,93.00
2018-09-01T22:26:42.652Z,92.80
2018-09-01T22:29:11.694Z,92.60
2018-09-01T22:31:40.698Z,92.60
2018-09-01T22:34:09.854Z,92.80
2018-09-01T22:36:38.726Z,92.90
2018-09-01T22:39:07.883Z,92.70
2018-09-01T22:41:36.776Z,92.90
2018-09-01T22:44:05.636Z,92.80
2018-09-01T22:46:35.376Z,92.60
2018-09-01T22:49:04.361Z,92.60
2018-09-01T22:51:33.199Z,92.90
2018-09-01T22:54:02.578Z,92.90
2018-09-01T22:56:32.497Z,93.00
2018-09-01T22:59:01.447Z,92.80
2018-09-01T23:01:32.179Z,92.80
2018-09-01T23:04:01.282Z,92.70
2018-09-01T23:06:30.284Z,92.80
2018-09-01T23:08:59.647Z,92.90
2018-09-01T23:11:28.446Z,92.90
2018-09-01T23:13:57.354Z,92.80
2018-09-01T23:16:26.183Z,92.70
2018-09-01T23:18:55.133Z,92.80
2018-09-01T23:21:24.672Z,92.80
2018-09-01T23:23:54.069Z,93.10
2018-09-01T23:26:22.911Z,93.10
2018-09-01T23:28:51.774Z,93.10
2018-09-01T23:31:20.717Z,93.10
2018-09-01T23:33:50.725Z,93.10
2018-09-01T23:36:19.622Z,93.10
2018-09-01T23:38:48.683Z,93.00
2018-09-01T23:41:17.709Z,93.00
2018-09-01T23:43:48.535Z,93.10
2018-09-01T23:46:17.335Z,93.10
2018-09-01T23:48:46.227Z,93.20
2018-09-01T23:51:15.587Z,93.20
2018-09-01T23:53:45.042Z,93.30
2018-09-01T23:56:13.972Z,93.20
2018-09-01T23:58:44.707Z,93.20
